sensor_id;sensor_type;location;lat;lon;timestamp;pressure;altitude;pressure_sealevel;temperature;humidity
35331;BME280;21441;52.190;20.910;2024-03-25T00:01:36;98692.03;;;3.65;100.00
35331;BME280;21441;52.190;20.910;2024-03-25T00:04:03;98693.84;;;3.65;100.00
35331;BME280;21441;52.190;20.910;2024-03-25T00:06:29;98699.78;;;3.67;100.00
35331;BME280;21441;52.190;20.910;2024-03-25T00:08:59;98700.59;;;3.59;100.00
35331;BME280;21441;52.190;20.910;2024-03-25T00:11:27;98699.44;;;3.70;100.00
35331;BME280;21441;52.190;20.910;2024-03-25T00:13:53;98693.50;;;3.68;100.00
35331;BME280;21441;52.190;20.910;2024-03-25T00:16:20;98692.53;;;3.61;100.00
35331;BME280;21441;52.190;20.910;2024-03-25T00:18:46;98698.97;;;3.58;100.00
35331;BME280;21441;52.190;20.910;2024-03-25T00:21:13;98687.09;;;3.62;100.00
35331;BME280;21441;52.190;20.910;2024-03-25T00:23:39;98693.69;;;3.58;100.00
35331;BME280;21441;52.190;20.910;2024-03-25T00:26:06;98686.75;;;3.57;100.00
35331;BME280;21441;52.190;20.910;2024-03-25T00:28:33;98687.41;;;3.59;100.00
35331;BME280;21441;52.190;20.910;2024-03-25T00:31:00;98693.34;;;3.53;100.00
35331;BME280;21441;52.190;20.910;2024-03-25T00:33:26;98685.09;;;3.48;100.00
35331;BME280;21441;52.190;20.910;2024-03-25T00:35:53;98685.75;;;3.42;100.00
35331;BME280;21441;52.190;20.910;2024-03-25T00:38:19;98690.06;;;3.43;100.00
35331;BME280;21441;52.190;20.910;2024-03-25T00:40:45;98685.56;;;3.19;100.00
35331;BME280;21441;52.190;20.910;2024-03-25T00:43:12;98677.47;;;3.12;100.00
35331;BME280;21441;52.190;20.910;2024-03-25T00:45:41;98684.22;;;3.15;100.00
35331;BME280;21441;52.190;20.910;2024-03-25T00:48:07;98673.16;;;3.03;100.00
35331;BME280;21441;52.190;20.910;2024-03-25T00:50:34;98673.66;;;3.06;100.00
35331;BME280;21441;52.190;20.910;2024-03-25T00:53:00;98674.16;;;3.02;100.00
35331;BME280;21441;52.190;20.910;2024-03-25T00:55:27;98676.28;;;2.98;100.00
35331;BME280;21441;52.190;20.910;2024-03-25T00:57:53;98669.88;;;3.01;100.00
35331;BME280;21441;52.190;20.910;2024-03-25T01:00:20;98665.06;;;2.88;100.00
35331;BME280;21441;52.190;20.910;2024-03-25T01:02:47;98670.19;;;2.98;100.00
35331;BME280;21441;52.190;20.910;2024-03-25T01:05:14;98669.84;;;2.93;100.00
35331;BME280;21441;52.190;20.910;2024-03-25T01:07:41;98659.81;;;2.96;100.00
35331;BME280;21441;52.190;20.910;2024-03-25T01:10:08;98664.06;;;2.89;100.00
35331;BME280;21441;52.190;20.910;2024-03-25T01:12:34;98654.19;;;2.91;100.00
35331;BME280;21441;52.190;20.910;2024-03-25T01:15:02;98660.28;;;2.83;100.00
35331;BME280;21441;52.190;20.910;2024-03-25T01:17:28;98642.66;;;2.84;100.00
35331;BME280;21441;52.190;20.910;2024-03-25T01:19:56;98651.19;;;2.78;100.00
35331;BME280;21441;52.190;20.910;2024-03-25T01:22:22;98647.09;;;2.75;100.00
35331;BME280;21441;52.190;20.910;2024-03-25T01:24:49;98645.16;;;2.85;100.00
35331;BME280;21441;52.190;20.910;2024-03-25T01:27:15;98655.19;;;2.90;100.00
35331;BME280;21441;52.190;20.910;2024-03-25T01:29:42;98649.22;;;2.80;100.00
35331;BME280;21441;52.190;20.910;2024-03-25T01:32:08;98643.25;;;2.69;100.00
35331;BME280;21441;52.190;20.910;2024-03-25T01:34:34;98652.16;;;2.68;100.00
35331;BME280;21441;52.190;20.910;2024-03-25T01:37:02;98660.88;;;2.69;100.00
35331;BME280;21441;52.190;20.910;2024-03-25T01:39:29;98657.59;;;2.67;100.00
35331;BME280;21441;52.190;20.910;2024-03-25T01:41:55;98647.91;;;2.76;100.00
35331;BME280;21441;52.190;20.910;2024-03-25T01:44:22;98656.47;;;2.78;100.00
35331;BME280;21441;52.190;20.910;2024-03-25T01:46:50;98637.34;;;2.67;100.00
35331;BME280;21441;52.190;20.910;2024-03-25T01:49:18;98655.09;;;2.65;100.00
35331;BME280;21441;52.190;20.910;2024-03-25T01:51:45;98645.91;;;2.69;100.00
35331;BME280;21441;52.190;20.910;2024-03-25T01:54:14;98644.75;;;2.64;100.00
35331;BME280;21441;52.190;20.910;2024-03-25T01:56:43;98641.06;;;2.48;100.00
35331;BME280;21441;52.190;20.910;2024-03-25T01:59:13;98645.38;;;2.58;100.00
35331;BME280;21441;52.190;20.910;2024-03-25T02:01:42;98646.38;;;2.65;100.00
35331;BME280;21441;52.190;20.910;2024-03-25T02:04:09;98636.38;;;2.68;100.00
35331;BME280;21441;52.190;20.910;2024-03-25T02:06:37;98638.00;;;2.69;100.00
35331;BME280;21441;52.190;20.910;2024-03-25T02:09:05;98640.66;;;2.78;100.00
35331;BME280;21441;52.190;20.910;2024-03-25T02:11:33;98636.88;;;2.80;100.00
35331;BME280;21441;52.190;20.910;2024-03-25T02:14:00;98642.31;;;2.79;100.00
35331;BME280;21441;52.190;20.910;2024-03-25T02:16:27;98635.41;;;2.78;100.00
35331;BME280;21441;52.190;20.910;2024-03-25T02:18:53;98618.41;;;2.72;100.00
35331;BME280;21441;52.190;20.910;2024-03-25T02:21:20;98638.53;;;2.89;100.00
35331;BME280;21441;52.190;20.910;2024-03-25T02:23:46;98632.44;;;2.73;100.00
35331;BME280;21441;52.190;20.910;2024-03-25T02:26:17;98636.22;;;2.78;100.00
35331;BME280;21441;52.190;20.910;2024-03-25T02:28:43;98644.31;;;2.85;100.00
35331;BME280;21441;52.190;20.910;2024-03-25T02:31:10;98641.50;;;2.86;100.00
35331;BME280;21441;52.190;20.910;2024-03-25T02:33:36;98649.56;;;2.77;100.00
35331;BME280;21441;52.190;20.910;2024-03-25T02:36:03;98650.91;;;2.89;100.00
35331;BME280;21441;52.190;20.910;2024-03-25T02:38:29;98646.44;;;2.89;100.00
35331;BME280;21441;52.190;20.910;2024-03-25T02:40:58;98633.44;;;2.80;100.00
35331;BME280;21441;52.190;20.910;2024-03-25T02:43:26;98642.38;;;3.03;100.00
35331;BME280;21441;52.190;20.910;2024-03-25T02:45:53;98649.94;;;2.98;100.00
35331;BME280;21441;52.190;20.910;2024-03-25T02:48:19;98636.75;;;2.98;100.00
35331;BME280;21441;52.190;20.910;2024-03-25T02:50:46;98644.34;;;3.01;100.00
35331;BME280;21441;52.190;20.910;2024-03-25T02:53:12;98646.31;;;2.99;100.00
35331;BME280;21441;52.190;20.910;2024-03-25T02:55:38;98651.06;;;2.96;100.00
35331;BME280;21441;52.190;20.910;2024-03-25T02:58:05;98653.25;;;3.08;100.00
35331;BME280;21441;52.190;20.910;2024-03-25T03:00:33;98657.53;;;3.09;100.00
35331;BME280;21441;52.190;20.910;2024-03-25T03:02:59;98658.53;;;3.17;100.00
35331;BME280;21441;52.190;20.910;2024-03-25T03:05:25;98647.97;;;3.08;100.00
35331;BME280;21441;52.190;20.910;2024-03-25T03:07:52;98660.53;;;3.23;100.00
35331;BME280;21441;52.190;20.910;2024-03-25T03:10:18;98668.22;;;3.00;100.00
35331;BME280;21441;52.190;20.910;2024-03-25T03:12:45;98664.47;;;3.10;100.00
35331;BME280;21441;52.190;20.910;2024-03-25T03:15:11;98664.94;;;3.06;100.00
35331;BME280;21441;52.190;20.910;2024-03-25T03:17:39;98675.50;;;3.14;100.00
35331;BME280;21441;52.190;20.910;2024-03-25T03:20:06;98671.22;;;3.21;100.00
35331;BME280;21441;52.190;20.910;2024-03-25T03:22:33;98675.00;;;3.10;100.00
35331;BME280;21441;52.190;20.910;2024-03-25T03:24:59;98680.59;;;3.07;100.00
35331;BME280;21441;52.190;20.910;2024-03-25T03:27:26;98673.84;;;3.13;100.00
35331;BME280;21441;52.190;20.910;2024-03-25T03:29:52;98683.09;;;3.17;100.00
35331;BME280;21441;52.190;20.910;2024-03-25T03:32:18;98669.75;;;3.19;100.00
35331;BME280;21441;52.190;20.910;2024-03-25T03:34:46;98675.69;;;3.21;100.00
35331;BME280;21441;52.190;20.910;2024-03-25T03:37:12;98672.69;;;3.16;100.00
35331;BME280;21441;52.190;20.910;2024-03-25T03:39:39;98677.97;;;3.07;100.00
35331;BME280;21441;52.190;20.910;2024-03-25T03:42:06;98685.19;;;2.97;100.00
35331;BME280;21441;52.190;20.910;2024-03-25T03:44:32;98672.56;;;2.66;100.00
35331;BME280;21441;52.190;20.910;2024-03-25T03:46:59;98684.59;;;2.69;100.00
35331;BME280;21441;52.190;20.910;2024-03-25T03:49:25;98686.69;;;2.65;100.00
35331;BME280;21441;52.190;20.910;2024-03-25T03:51:54;98687.88;;;2.71;100.00
35331;BME280;21441;52.190;20.910;2024-03-25T03:54:20;98689.72;;;2.79;100.00
35331;BME280;21441;52.190;20.910;2024-03-25T03:56:46;98695.50;;;2.82;100.00
35331;BME280;21441;52.190;20.910;2024-03-25T03:59:13;98694.69;;;2.82;100.00
35331;BME280;21441;52.190;20.910;2024-03-25T04:01:39;98696.78;;;2.78;100.00
35331;BME280;21441;52.190;20.910;2024-03-25T04:04:05;98702.16;;;2.60;100.00
35331;BME280;21441;52.190;20.910;2024-03-25T04:06:32;98689.81;;;2.61;100.00
35331;BME280;21441;52.190;20.910;2024-03-25T04:08:59;98700.97;;;2.55;100.00
35331;BME280;21441;52.190;20.910;2024-03-25T04:11:26;98678.53;;;2.42;100.00
35331;BME280;21441;52.190;20.910;2024-03-25T04:13:52;98684.69;;;2.51;100.00
35331;BME280;21441;52.190;20.910;2024-03-25T04:16:19;98696.69;;;2.54;100.00
35331;BME280;21441;52.190;20.910;2024-03-25T04:18:47;98695.34;;;2.50;100.00
35331;BME280;21441;52.190;20.910;2024-03-25T04:21:14;98683.09;;;2.32;100.00
35331;BME280;21441;52.190;20.910;2024-03-25T04:23:40;98699.13;;;2.47;100.00
35331;BME280;21441;52.190;20.910;2024-03-25T04:26:10;98700.75;;;2.48;100.00
35331;BME280;21441;52.190;20.910;2024-03-25T04:28:36;98693.88;;;2.47;100.00
35331;BME280;21441;52.190;20.910;2024-03-25T04:31:03;98699.84;;;2.57;100.00
35331;BME280;21441;52.190;20.910;2024-03-25T04:33:29;98705.44;;;2.62;100.00
35331;BME280;21441;52.190;20.910;2024-03-25T04:35:56;98694.09;;;2.62;100.00
35331;BME280;21441;52.190;20.910;2024-03-25T04:38:22;98700.84;;;2.64;100.00
35331;BME280;21441;52.190;20.910;2024-03-25T04:40:48;98690.38;;;2.38;100.00
35331;BME280;21441;52.190;20.910;2024-03-25T04:43:15;98705.22;;;2.47;100.00
35331;BME280;21441;52.190;20.910;2024-03-25T04:45:42;98698.78;;;2.42;100.00
35331;BME280;21441;52.190;20.910;2024-03-25T04:48:08;98701.75;;;2.47;100.00
35331;BME280;21441;52.190;20.910;2024-03-25T04:50:34;98690.22;;;2.40;100.00
35331;BME280;21441;52.190;20.910;2024-03-25T04:53:00;98700.00;;;2.56;100.00
35331;BME280;21441;52.190;20.910;2024-03-25T04:55:26;98706.97;;;2.39;100.00
35331;BME280;21441;52.190;20.910;2024-03-25T04:57:52;98698.97;;;2.48;100.00
35331;BME280;21441;52.190;20.910;2024-03-25T05:00:20;98706.59;;;2.60;100.00
35331;BME280;21441;52.190;20.910;2024-03-25T05:02:46;98701.41;;;2.42;100.00
35331;BME280;21441;52.190;20.910;2024-03-25T05:05:12;98703.72;;;2.45;100.00
35331;BME280;21441;52.190;20.910;2024-03-25T05:07:38;98686.09;;;2.37;100.00
35331;BME280;21441;52.190;20.910;2024-03-25T05:10:05;98709.66;;;2.47;100.00
35331;BME280;21441;52.190;20.910;2024-03-25T05:12:31;98711.03;;;2.59;100.00
35331;BME280;21441;52.190;20.910;2024-03-25T05:14:57;98707.53;;;2.51;100.00
35331;BME280;21441;52.190;20.910;2024-03-25T05:17:25;98701.13;;;2.53;100.00
35331;BME280;21441;52.190;20.910;2024-03-25T05:19:50;98711.72;;;2.61;100.00
35331;BME280;21441;52.190;20.910;2024-03-25T05:22:17;98706.34;;;2.79;100.00
35331;BME280;21441;52.190;20.910;2024-03-25T05:24:43;98706.34;;;2.79;100.00
35331;BME280;21441;52.190;20.910;2024-03-25T05:27:09;98718.25;;;2.92;100.00
35331;BME280;21441;52.190;20.910;2024-03-25T05:29:34;98710.38;;;3.00;100.00
35331;BME280;21441;52.190;20.910;2024-03-25T05:32:01;98707.06;;;2.98;100.00
35331;BME280;21441;52.190;20.910;2024-03-25T05:34:29;98717.75;;;2.88;100.00
35331;BME280;21441;52.190;20.910;2024-03-25T05:36:55;98710.53;;;2.98;100.00
35331;BME280;21441;52.190;20.910;2024-03-25T05:39:21;98700.84;;;2.99;100.00
35331;BME280;21441;52.190;20.910;2024-03-25T05:41:47;98706.66;;;3.35;100.00
35331;BME280;21441;52.190;20.910;2024-03-25T05:44:13;98716.91;;;3.46;100.00
35331;BME280;21441;52.190;20.910;2024-03-25T05:46:40;98724.34;;;3.59;100.00
35331;BME280;21441;52.190;20.910;2024-03-25T05:49:06;98717.75;;;3.63;100.00
35331;BME280;21441;52.190;20.910;2024-03-25T05:51:33;98718.44;;;3.74;100.00
35331;BME280;21441;52.190;20.910;2024-03-25T05:53:59;98714.47;;;3.69;100.00
35331;BME280;21441;52.190;20.910;2024-03-25T05:56:25;98734.75;;;3.93;100.00
35331;BME280;21441;52.190;20.910;2024-03-25T05:58:51;98740.19;;;4.00;100.00
35331;BME280;21441;52.190;20.910;2024-03-25T06:01:17;98743.16;;;4.13;100.00
35331;BME280;21441;52.190;20.910;2024-03-25T06:03:43;98740.31;;;4.23;100.00
35331;BME280;21441;52.190;20.910;2024-03-25T06:06:09;98739.84;;;4.11;100.00
35331;BME280;21441;52.190;20.910;2024-03-25T06:08:37;98744.97;;;4.05;100.00
35331;BME280;21441;52.190;20.910;2024-03-25T06:11:03;98729.63;;;4.08;100.00
35331;BME280;21441;52.190;20.910;2024-03-25T06:13:29;98736.72;;;4.00;100.00
35331;BME280;21441;52.190;20.910;2024-03-25T06:15:55;98746.59;;;4.06;100.00
35331;BME280;21441;52.190;20.910;2024-03-25T06:18:21;98737.03;;;4.05;100.00
35331;BME280;21441;52.190;20.910;2024-03-25T06:20:47;98746.13;;;4.02;100.00
35331;BME280;21441;52.190;20.910;2024-03-25T06:23:22;98749.25;;;4.06;100.00
35331;BME280;21441;52.190;20.910;2024-03-25T06:25:51;98746.59;;;4.06;100.00
35331;BME280;21441;52.190;20.910;2024-03-25T06:28:17;98742.81;;;4.25;100.00
35331;BME280;21441;52.190;20.910;2024-03-25T06:30:44;98744.31;;;4.11;100.00
35331;BME280;21441;52.190;20.910;2024-03-25T06:33:32;98752.72;;;4.06;100.00
35331;BME280;21441;52.190;20.910;2024-03-25T06:36:17;98755.69;;;4.11;100.00
35331;BME280;21441;52.190;20.910;2024-03-25T06:38:43;98763.75;;;4.10;100.00
35331;BME280;21441;52.190;20.910;2024-03-25T06:41:11;98764.75;;;4.01;100.00
35331;BME280;21441;52.190;20.910;2024-03-25T06:43:38;98760.97;;;4.11;100.00
35331;BME280;21441;52.190;20.910;2024-03-25T06:46:04;98758.31;;;4.11;100.00
35331;BME280;21441;52.190;20.910;2024-03-25T06:48:30;98772.34;;;4.20;100.00
35331;BME280;21441;52.190;20.910;2024-03-25T06:50:57;98768.03;;;4.27;100.00
35331;BME280;21441;52.190;20.910;2024-03-25T06:53:24;98774.94;;;4.61;100.00
35331;BME280;21441;52.190;20.910;2024-03-25T06:55:51;98762.47;;;4.86;100.00
35331;BME280;21441;52.190;20.910;2024-03-25T06:58:19;98765.03;;;5.03;100.00
35331;BME280;21441;52.190;20.910;2024-03-25T07:00:46;98756.53;;;5.24;100.00
35331;BME280;21441;52.190;20.910;2024-03-25T07:03:12;98760.44;;;5.36;100.00
35331;BME280;21441;52.190;20.910;2024-03-25T07:05:38;98761.13;;;5.30;100.00
35331;BME280;21441;52.190;20.910;2024-03-25T07:08:04;98760.56;;;5.43;100.00
35331;BME280;21441;52.190;20.910;2024-03-25T07:10:31;98764.94;;;5.58;100.00
35331;BME280;21441;52.190;20.910;2024-03-25T07:12:57;98764.00;;;5.74;100.00
35331;BME280;21441;52.190;20.910;2024-03-25T07:15:24;98765.53;;;5.92;100.00
35331;BME280;21441;52.190;20.910;2024-03-25T07:17:50;98769.34;;;5.97;100.00
35331;BME280;21441;52.190;20.910;2024-03-25T07:20:16;98772.47;;;6.39;100.00
35331;BME280;21441;52.190;20.910;2024-03-25T07:22:42;98781.09;;;6.71;100.00
35331;BME280;21441;52.190;20.910;2024-03-25T07:25:08;98778.81;;;6.68;100.00
35331;BME280;21441;52.190;20.910;2024-03-25T07:27:35;98782.53;;;6.58;100.00
35331;BME280;21441;52.190;20.910;2024-03-25T07:30:01;98769.84;;;6.84;100.00
35331;BME280;21441;52.190;20.910;2024-03-25T07:32:28;98773.13;;;7.15;100.00
35331;BME280;21441;52.190;20.910;2024-03-25T07:34:54;98779.59;;;7.28;100.00
35331;BME280;21441;52.190;20.910;2024-03-25T07:37:20;98770.03;;;7.12;100.00
35331;BME280;21441;52.190;20.910;2024-03-25T07:39:47;98784.84;;;7.06;100.00
35331;BME280;21441;52.190;20.910;2024-03-25T07:42:13;98789.75;;;7.24;100.00
35331;BME280;21441;52.190;20.910;2024-03-25T07:44:39;98795.19;;;7.52;100.00
35331;BME280;21441;52.190;20.910;2024-03-25T07:47:05;98772.72;;;7.70;100.00
35331;BME280;21441;52.190;20.910;2024-03-25T07:49:33;98774.06;;;7.80;96.11
35331;BME280;21441;52.190;20.910;2024-03-25T07:51:59;98793.59;;;7.94;96.16
35331;BME280;21441;52.190;20.910;2024-03-25T07:54:26;98790.25;;;8.07;95.88
35331;BME280;21441;52.190;20.910;2024-03-25T07:56:52;98796.41;;;7.86;91.43
35331;BME280;21441;52.190;20.910;2024-03-25T07:59:18;98798.47;;;7.54;94.85
35331;BME280;21441;52.190;20.910;2024-03-25T08:01:44;98788.91;;;7.53;95.02
35331;BME280;21441;52.190;20.910;2024-03-25T08:04:10;98784.56;;;7.89;92.39
35331;BME280;21441;52.190;20.910;2024-03-25T08:06:37;98785.94;;;8.27;89.55
35331;BME280;21441;52.190;20.910;2024-03-25T08:09:04;98789.31;;;8.64;85.30
35331;BME280;21441;52.190;20.910;2024-03-25T08:11:31;98791.88;;;8.51;83.22
35331;BME280;21441;52.190;20.910;2024-03-25T08:13:57;98793.72;;;8.79;80.48
35331;BME280;21441;52.190;20.910;2024-03-25T08:16:23;98787.38;;;9.15;79.05
35331;BME280;21441;52.190;20.910;2024-03-25T08:18:49;98786.72;;;9.06;77.66
35331;BME280;21441;52.190;20.910;2024-03-25T08:21:15;98788.34;;;8.72;77.14
35331;BME280;21441;52.190;20.910;2024-03-25T08:23:45;98788.69;;;9.32;76.91
35331;BME280;21441;52.190;20.910;2024-03-25T08:26:11;98784.19;;;9.39;76.46
35331;BME280;21441;52.190;20.910;2024-03-25T08:28:38;98795.19;;;9.78;75.28
35331;BME280;21441;52.190;20.910;2024-03-25T08:31:04;98780.97;;;9.57;72.26
35331;BME280;21441;52.190;20.910;2024-03-25T08:33:30;98801.03;;;9.46;71.65
35331;BME280;21441;52.190;20.910;2024-03-25T08:35:56;98799.94;;;9.34;72.87
35331;BME280;21441;52.190;20.910;2024-03-25T08:38:22;98795.31;;;9.49;73.05
35331;BME280;21441;52.190;20.910;2024-03-25T08:40:50;98789.28;;;9.96;72.91
35331;BME280;21441;52.190;20.910;2024-03-25T08:43:17;98781.50;;;10.27;68.78
35331;BME280;21441;52.190;20.910;2024-03-25T08:45:43;98775.16;;;10.82;66.39
35331;BME280;21441;52.190;20.910;2024-03-25T08:48:09;98781.38;;;11.27;65.13
35331;BME280;21441;52.190;20.910;2024-03-25T08:50:35;98778.59;;;11.02;62.90
35331;BME280;21441;52.190;20.910;2024-03-25T08:53:03;98786.22;;;10.92;62.54
35331;BME280;21441;52.190;20.910;2024-03-25T08:55:29;98784.63;;;10.51;64.72
35331;BME280;21441;52.190;20.910;2024-03-25T08:57:56;98788.50;;;10.15;64.28
35331;BME280;21441;52.190;20.910;2024-03-25T09:00:23;98793.56;;;10.03;62.87
35331;BME280;21441;52.190;20.910;2024-03-25T09:02:49;98790.97;;;10.17;65.74
35331;BME280;21441;52.190;20.910;2024-03-25T09:05:15;98799.31;;;10.00;64.40
35331;BME280;21441;52.190;20.910;2024-03-25T09:07:41;98790.53;;;10.26;64.40
35331;BME280;21441;52.190;20.910;2024-03-25T09:10:07;98796.94;;;10.65;62.27
35331;BME280;21441;52.190;20.910;2024-03-25T09:12:52;98795.50;;;10.63;62.70
35331;BME280;21441;52.190;20.910;2024-03-25T09:15:19;98805.28;;;10.16;62.44
35331;BME280;21441;52.190;20.910;2024-03-25T09:17:45;98796.69;;;10.27;63.73
35331;BME280;21441;52.190;20.910;2024-03-25T09:20:11;98804.72;;;10.87;62.16
35331;BME280;21441;52.190;20.910;2024-03-25T09:22:40;98786.00;;;11.00;61.05
35331;BME280;21441;52.190;20.910;2024-03-25T09:25:07;98796.63;;;11.20;59.74
35331;BME280;21441;52.190;20.910;2024-03-25T09:27:33;98803.31;;;11.43;59.92
35331;BME280;21441;52.190;20.910;2024-03-25T09:29:59;98795.34;;;11.74;57.60
35331;BME280;21441;52.190;20.910;2024-03-25T09:32:26;98774.69;;;11.05;58.86
35331;BME280;21441;52.190;20.910;2024-03-25T09:34:52;98806.97;;;10.63;60.72
35331;BME280;21441;52.190;20.910;2024-03-25T09:37:18;98797.69;;;10.92;58.75
35331;BME280;21441;52.190;20.910;2024-03-25T09:39:44;98808.41;;;10.59;58.47
35331;BME280;21441;52.190;20.910;2024-03-25T09:42:14;98787.41;;;9.83;60.45
35331;BME280;21441;52.190;20.910;2024-03-25T09:44:40;98797.59;;;9.73;60.99
35331;BME280;21441;52.190;20.910;2024-03-25T09:47:07;98798.16;;;9.48;59.75
35331;BME280;21441;52.190;20.910;2024-03-25T09:49:35;98793.78;;;9.95;58.04
35331;BME280;21441;52.190;20.910;2024-03-25T09:52:01;98800.97;;;10.01;57.27
35331;BME280;21441;52.190;20.910;2024-03-25T09:54:28;98807.75;;;10.04;59.08
35331;BME280;21441;52.190;20.910;2024-03-25T09:56:54;98799.59;;;10.52;59.54
35331;BME280;21441;52.190;20.910;2024-03-25T09:59:20;98806.34;;;10.74;59.33
35331;BME280;21441;52.190;20.910;2024-03-25T10:01:46;98802.50;;;11.42;57.21
35331;BME280;21441;52.190;20.910;2024-03-25T10:04:13;98802.50;;;11.81;56.00
35331;BME280;21441;52.190;20.910;2024-03-25T10:06:40;98799.53;;;11.64;56.26
35331;BME280;21441;52.190;20.910;2024-03-25T10:09:06;98795.84;;;11.00;57.43
35331;BME280;21441;52.190;20.910;2024-03-25T10:11:32;98801.13;;;11.13;57.53
35331;BME280;21441;52.190;20.910;2024-03-25T10:14:00;98805.31;;;10.82;57.38
35331;BME280;21441;52.190;20.910;2024-03-25T10:16:26;98799.19;;;10.62;59.11
35331;BME280;21441;52.190;20.910;2024-03-25T10:18:52;98798.78;;;10.38;59.93
35331;BME280;21441;52.190;20.910;2024-03-25T10:21:20;98807.81;;;10.37;60.21
35331;BME280;21441;52.190;20.910;2024-03-25T10:23:47;98796.13;;;10.65;57.92
35331;BME280;21441;52.190;20.910;2024-03-25T10:26:26;98805.53;;;10.74;57.17
35331;BME280;21441;52.190;20.910;2024-03-25T10:28:59;98810.56;;;11.29;53.39
35331;BME280;21441;52.190;20.910;2024-03-25T10:31:25;98803.69;;;10.68;53.65
35331;BME280;21441;52.190;20.910;2024-03-25T10:33:52;98807.59;;;10.65;54.87
35331;BME280;21441;52.190;20.910;2024-03-25T10:36:19;98810.41;;;10.10;55.49
35331;BME280;21441;52.190;20.910;2024-03-25T10:38:48;98815.72;;;9.90;55.91
35331;BME280;21441;52.190;20.910;2024-03-25T10:41:17;98810.41;;;10.04;55.83
35331;BME280;21441;52.190;20.910;2024-03-25T10:43:47;98817.28;;;9.71;56.63
35331;BME280;21441;52.190;20.910;2024-03-25T10:46:17;98822.63;;;9.71;56.26
35331;BME280;21441;52.190;20.910;2024-03-25T10:48:48;98812.91;;;9.57;55.89
35331;BME280;21441;52.190;20.910;2024-03-25T10:51:20;98815.44;;;9.72;55.60
35331;BME280;21441;52.190;20.910;2024-03-25T10:53:51;98810.44;;;10.17;56.47
35331;BME280;21441;52.190;20.910;2024-03-25T10:56:20;98812.72;;;10.40;55.74
35331;BME280;21441;52.190;20.910;2024-03-25T10:58:49;98816.63;;;10.64;55.16
35331;BME280;21441;52.190;20.910;2024-03-25T11:01:17;98814.97;;;10.77;53.99
35331;BME280;21441;52.190;20.910;2024-03-25T11:03:44;98814.94;;;10.97;53.06
35331;BME280;21441;52.190;20.910;2024-03-25T11:06:10;98811.59;;;11.14;52.56
35331;BME280;21441;52.190;20.910;2024-03-25T11:08:37;98813.00;;;11.24;52.38
35331;BME280;21441;52.190;20.910;2024-03-25T11:11:05;98811.28;;;10.71;53.13
35331;BME280;21441;52.190;20.910;2024-03-25T11:13:31;98816.22;;;10.47;53.86
35331;BME280;21441;52.190;20.910;2024-03-25T11:15:57;98804.13;;;10.71;54.44
35331;BME280;21441;52.190;20.910;2024-03-25T11:18:24;98806.53;;;10.86;53.96
35331;BME280;21441;52.190;20.910;2024-03-25T11:21:00;98800.56;;;10.91;54.01
35331;BME280;21441;52.190;20.910;2024-03-25T11:23:26;98804.88;;;10.99;53.13
35331;BME280;21441;52.190;20.910;2024-03-25T11:26:01;98808.19;;;10.94;53.33
35331;BME280;21441;52.190;20.910;2024-03-25T11:28:29;98806.81;;;11.36;52.74
35331;BME280;21441;52.190;20.910;2024-03-25T11:30:56;98800.28;;;11.77;50.45
35331;BME280;21441;52.190;20.910;2024-03-25T11:33:22;98794.81;;;12.29;49.67
35331;BME280;21441;52.190;20.910;2024-03-25T11:35:49;98793.88;;;11.78;49.58
35331;BME280;21441;52.190;20.910;2024-03-25T11:38:15;98788.69;;;11.52;49.94
35331;BME280;21441;52.190;20.910;2024-03-25T11:40:43;98793.94;;;11.27;51.82
35331;BME280;21441;52.190;20.910;2024-03-25T11:43:09;98796.53;;;11.47;51.98
35331;BME280;21441;52.190;20.910;2024-03-25T11:45:37;98797.63;;;11.19;52.52
35331;BME280;21441;52.190;20.910;2024-03-25T11:48:03;98806.97;;;10.77;53.00
35331;BME280;21441;52.190;20.910;2024-03-25T11:50:30;98799.16;;;10.88;52.61
35331;BME280;21441;52.190;20.910;2024-03-25T11:52:56;98796.56;;;11.33;52.17
35331;BME280;21441;52.190;20.910;2024-03-25T11:55:22;98805.69;;;11.06;53.01
35331;BME280;21441;52.190;20.910;2024-03-25T11:57:54;98784.38;;;10.79;53.01
35331;BME280;21441;52.190;20.910;2024-03-25T12:00:21;98783.00;;;11.35;52.52
35331;BME280;21441;52.190;20.910;2024-03-25T12:02:48;98791.41;;;11.39;51.02
35331;BME280;21441;52.190;20.910;2024-03-25T12:05:14;98792.53;;;11.18;52.29
35331;BME280;21441;52.190;20.910;2024-03-25T12:07:41;98796.00;;;11.18;53.06
35331;BME280;21441;52.190;20.910;2024-03-25T12:10:07;98789.94;;;11.49;51.99
35331;BME280;21441;52.190;20.910;2024-03-25T12:12:51;98797.75;;;11.51;52.21
35331;BME280;21441;52.190;20.910;2024-03-25T12:15:18;98796.56;;;11.33;52.99
35331;BME280;21441;52.190;20.910;2024-03-25T12:17:45;98788.03;;;11.05;53.55
35331;BME280;21441;52.190;20.910;2024-03-25T12:20:13;98789.09;;;10.90;55.54
35331;BME280;21441;52.190;20.910;2024-03-25T12:22:39;98800.00;;;10.36;55.75
35331;BME280;21441;52.190;20.910;2024-03-25T12:25:07;98799.59;;;10.52;56.74
35331;BME280;21441;52.190;20.910;2024-03-25T12:27:35;98808.56;;;10.98;55.72
35331;BME280;21441;52.190;20.910;2024-03-25T12:30:04;98802.66;;;10.49;57.54
35331;BME280;21441;52.190;20.910;2024-03-25T12:32:31;98811.66;;;10.94;56.85
35331;BME280;21441;52.190;20.910;2024-03-25T12:34:58;98794.44;;;10.24;57.21
35331;BME280;21441;52.190;20.910;2024-03-25T12:37:27;98786.03;;;10.13;57.94
35331;BME280;21441;52.190;20.910;2024-03-25T12:39:53;98798.16;;;10.43;58.06
35331;BME280;21441;52.190;20.910;2024-03-25T12:42:19;98809.84;;;10.48;58.50
35331;BME280;21441;52.190;20.910;2024-03-25T12:44:45;98802.19;;;9.99;59.71
35331;BME280;21441;52.190;20.910;2024-03-25T12:47:11;98812.47;;;10.08;60.49
35331;BME280;21441;52.190;20.910;2024-03-25T12:49:38;98807.16;;;10.28;60.54